Terminal Aerodrome Forecast
Issued by NWS

Home | Current Version | Previous Version | Text Only | Print | Product List | Glossary On
Versions: 1 2 3 4 5 6 7 8 9 10 11 12 13 14 15 16 17 18 19 20 21 22 23 24 25 26 27 28 29 30 31 32 33
000
FTUS45 KSLC 202344
TAFEVW
TAF
KEVW 202344Z 2100/2124 22014KT P6SM VCSH FEW010 BKN050
     FM210600 23014G24KT P6SM VCSH SCT010 BKN030
     FM211500 23021G34KT 5SM -SHSN BKN010 OVC025
     FM211900 25030G40KT 5SM -SHSN BKN008 OVC020=

USA.gov is the U.S. government's official web portal to all federal, state and local government web resources and services.